Time;durP1;ratioP1;P1;durP2;ratioP2;P2;SDS_P1;SDS_P2;PMS_P1;PMS_P2;Temp;Humidity;BMP_temperature;BMP_pressure;BME280_temperature;BME280_humidity;BME280_pressure;Samples;Min_cycle;Max_cycle;Signal;HPM_P1;HPM_P2
2023/08/15 00:01:36;;;;;;;5.47;2.78;;;20.10;99.90;;;;;;5039974;28;20044;-64
2023/08/15 00:04:02;;;;;;;5.68;3.00;;;20.20;99.90;;;;;;5037921;28;20021;-65
2023/08/15 00:06:28;;;;;;;7.85;2.80;;;20.20;99.90;;;;;;5040544;28;20032;-65
2023/08/15 00:08:54;;;;;;;4.57;2.80;;;20.10;99.90;;;;;;5037017;28;20052;-63
2023/08/15 00:11:23;;;;;;;5.55;3.10;;;20.00;99.90;;;;;;5034315;28;20025;-62
2023/08/15 00:13:50;;;;;;;4.95;3.05;;;20.00;99.90;;;;;;5042260;28;20094;-65
2023/08/15 00:16:15;;;;;;;6.50;3.33;;;19.90;99.90;;;;;;5044664;28;20029;-64
2023/08/15 00:18:42;;;;;;;4.22;3.00;;;19.90;99.90;;;;;;5043033;28;20032;-64
2023/08/15 00:21:07;;;;;;;4.82;3.00;;;19.80;99.90;;;;;;5037693;28;20099;-64
2023/08/15 00:23:33;;;;;;;4.80;3.03;;;19.80;99.90;;;;;;5037687;28;22072;-64
2023/08/15 00:25:59;;;;;;;7.35;3.70;;;19.80;99.90;;;;;;5040703;28;20053;-65
2023/08/15 00:28:24;;;;;;;3.95;2.97;;;19.80;99.90;;;;;;5046371;28;20536;-65
2023/08/15 00:30:50;;;;;;;6.22;2.95;;;19.80;99.90;;;;;;5044251;28;20028;-65
2023/08/15 00:33:16;;;;;;;5.50;2.92;;;19.80;99.90;;;;;;5043608;28;20031;-63
2023/08/15 00:35:44;;;;;;;3.30;2.78;;;19.90;99.90;;;;;;5043187;28;20025;-64
2023/08/15 00:38:10;;;;;;;7.32;3.03;;;19.90;99.90;;;;;;5049238;28;20029;-67
2023/08/15 00:40:39;;;;;;;6.25;3.20;;;19.90;99.90;;;;;;5013127;28;20405;-65
2023/08/15 00:43:05;;;;;;;4.18;2.72;;;19.90;99.90;;;;;;5039614;28;20030;-65
2023/08/15 00:45:31;;;;;;;3.25;2.60;;;19.90;99.90;;;;;;5043608;28;20025;-64
2023/08/15 00:47:57;;;;;;;3.63;2.88;;;19.80;99.90;;;;;;5038990;28;20023;-64
2023/08/15 00:50:24;;;;;;;3.63;2.75;;;19.80;99.90;;;;;;5046786;28;20033;-64
2023/08/15 00:52:50;;;;;;;4.55;3.13;;;19.70;99.90;;;;;;5047670;28;20108;-64
2023/08/15 00:55:17;;;;;;;5.03;3.60;;;19.60;99.90;;;;;;5045830;28;20029;-64
2023/08/15 00:57:43;;;;;;;6.70;3.83;;;19.50;99.90;;;;;;5044245;28;20107;-63
2023/08/15 01:00:11;;;;;;;5.25;3.63;;;19.40;99.90;;;;;;5044481;28;20129;-64
2023/08/15 01:02:37;;;;;;;7.57;4.35;;;19.50;99.90;;;;;;5042247;28;20055;-64
2023/08/15 01:05:04;;;;;;;6.10;3.40;;;19.60;99.90;;;;;;5040129;28;20440;-64
2023/08/15 01:07:29;;;;;;;6.32;3.50;;;19.70;99.90;;;;;;5041358;28;20114;-64
2023/08/15 01:09:55;;;;;;;9.02;3.65;;;19.80;99.90;;;;;;5042215;28;20041;-64
2023/08/15 01:12:48;;;;;;;5.28;2.55;;;19.90;99.90;;;;;;5043443;28;20025;-65
2023/08/15 01:15:22;;;;;;;6.00;3.22;;;19.90;99.90;;;;;;5040271;28;20172;-65
2023/08/15 01:18:00;;;;;;;4.35;2.88;;;20.00;99.90;;;;;;5042554;28;20043;-65
2023/08/15 01:20:32;;;;;;;3.33;2.80;;;20.00;99.90;;;;;;5039028;28;20124;-65
2023/08/15 01:23:01;;;;;;;5.75;2.83;;;20.10;99.90;;;;;;5045131;28;20092;-65
2023/08/15 01:25:27;;;;;;;5.25;2.80;;;20.00;99.90;;;;;;5043083;28;20056;-64
2023/08/15 01:27:52;;;;;;;5.65;2.78;;;20.00;99.90;;;;;;5043941;28;20021;-65
2023/08/15 01:30:22;;;;;;;4.35;2.80;;;19.90;99.90;;;;;;5046862;28;20055;-65
2023/08/15 01:32:54;;;;;;;5.50;2.80;;;19.80;99.90;;;;;;5043322;28;20104;-64
2023/08/15 01:35:24;;;;;;;7.28;3.15;;;19.80;99.90;;;;;;5043005;28;20064;-64
2023/08/15 01:38:02;;;;;;;5.50;3.00;;;19.70;99.90;;;;;;5048945;28;20394;-64
2023/08/15 01:40:30;;;;;;;4.95;2.85;;;19.60;99.90;;;;;;5046510;28;20021;-64
2023/08/15 01:42:58;;;;;;;3.33;2.67;;;19.60;99.90;;;;;;5043409;28;20024;-64
2023/08/15 01:45:25;;;;;;;7.75;3.38;;;19.50;99.90;;;;;;5049082;28;20020;-64
2023/08/15 01:47:51;;;;;;;7.22;3.38;;;19.50;99.90;;;;;;5041718;28;20041;-64
2023/08/15 01:50:17;;;;;;;7.25;3.35;;;19.40;99.90;;;;;;5039145;28;20418;-63
2023/08/15 01:52:43;;;;;;;4.25;3.40;;;19.40;99.90;;;;;;5040667;28;20028;-63
2023/08/15 01:55:09;;;;;;;6.65;3.05;;;19.40;99.90;;;;;;5041282;28;20125;-64
2023/08/15 01:57:35;;;;;;;4.50;2.92;;;19.40;99.90;;;;;;5043039;28;20024;-64
2023/08/15 02:00:00;;;;;;;4.65;3.35;;;19.50;99.90;;;;;;5046045;28;20021;-65
2023/08/15 02:02:26;;;;;;;5.05;2.78;;;19.50;99.90;;;;;;5005521;28;1113077;-64
2023/08/15 02:04:51;;;;;;;5.80;3.30;;;19.50;99.90;;;;;;5048475;28;20120;-65
2023/08/15 02:07:17;;;;;;;6.53;3.22;;;19.60;99.90;;;;;;5047964;28;20024;-65
2023/08/15 02:09:43;;;;;;;5.20;3.00;;;19.60;99.90;;;;;;5043004;28;20021;-63
2023/08/15 02:12:08;;;;;;;7.20;2.67;;;19.60;99.90;;;;;;5041916;28;20024;-65
2023/08/15 02:14:34;;;;;;;8.80;3.45;;;19.70;99.90;;;;;;5042631;28;20417;-63
2023/08/15 02:16:59;;;;;;;3.45;3.00;;;19.70;99.90;;;;;;5048088;28;20036;-65
2023/08/15 02:19:25;;;;;;;6.32;2.97;;;19.70;99.90;;;;;;5024169;28;20060;-66
2023/08/15 02:21:51;;;;;;;6.65;2.50;;;19.70;99.90;;;;;;5041537;28;20386;-67
2023/08/15 02:24:16;;;;;;;3.88;2.50;;;19.80;99.90;;;;;;5049070;28;20107;-65
2023/08/15 02:26:42;;;;;;;5.55;3.00;;;19.80;99.90;;;;;;5041407;28;20028;-64
2023/08/15 02:29:08;;;;;;;3.67;2.60;;;19.80;99.90;;;;;;5048411;28;20106;-65
2023/08/15 02:31:33;;;;;;;6.03;2.80;;;19.80;99.90;;;;;;5044731;28;20033;-64
2023/08/15 02:33:59;;;;;;;8.05;3.65;;;19.80;99.90;;;;;;5048040;28;20021;-65
2023/08/15 02:36:25;;;;;;;5.65;3.22;;;19.80;99.90;;;;;;5038261;28;20025;-65
2023/08/15 02:38:50;;;;;;;4.72;3.70;;;19.70;99.90;;;;;;5041586;28;20112;-65
2023/08/15 02:41:16;;;;;;;6.72;3.00;;;19.80;99.90;;;;;;5037096;28;20029;-65
2023/08/15 02:43:42;;;;;;;4.63;3.60;;;19.80;99.90;;;;;;5042837;28;20067;-64
2023/08/15 02:46:07;;;;;;;6.07;2.75;;;19.80;99.90;;;;;;5046417;28;20052;-66
2023/08/15 02:48:33;;;;;;;7.03;3.58;;;19.90;99.90;;;;;;5034168;28;20148;-63
2023/08/15 02:50:58;;;;;;;8.55;3.88;;;19.80;99.90;;;;;;5040577;28;20074;-67
2023/08/15 02:53:24;;;;;;;8.68;3.85;;;19.80;99.90;;;;;;5043526;28;20043;-65
2023/08/15 02:55:50;;;;;;;7.05;3.55;;;19.80;99.90;;;;;;5047164;28;20032;-65
2023/08/15 02:58:16;;;;;;;9.52;3.05;;;19.80;99.90;;;;;;5040935;28;20402;-64
2023/08/15 03:00:43;;;;;;;12.00;3.95;;;19.80;99.90;;;;;;5030552;28;20029;-64
2023/08/15 03:03:09;;;;;;;7.05;3.65;;;19.70;99.90;;;;;;5032996;28;20104;-64
2023/08/15 03:05:37;;;;;;;12.25;4.30;;;19.70;99.90;;;;;;5026066;28;20391;-63
2023/08/15 03:08:03;;;;;;;11.38;3.90;;;19.70;99.90;;;;;;5024545;28;20025;-64
2023/08/15 03:10:28;;;;;;;16.17;4.30;;;19.70;99.90;;;;;;5023944;28;20043;-64
2023/08/15 03:12:54;;;;;;;10.02;4.10;;;19.80;99.90;;;;;;5027972;28;20502;-64
2023/08/15 03:15:20;;;;;;;9.02;4.15;;;19.80;99.90;;;;;;5029793;28;20036;-64
2023/08/15 03:17:45;;;;;;;7.72;4.50;;;19.70;99.90;;;;;;5020866;28;20421;-64
2023/08/15 03:20:12;;;;;;;5.38;4.20;;;19.80;99.90;;;;;;5008285;28;20069;-64
2023/08/15 03:22:37;;;;;;;8.85;3.90;;;19.80;99.90;;;;;;5025410;28;20033;-64
2023/08/15 03:25:03;;;;;;;5.53;3.92;;;19.80;99.90;;;;;;5027349;28;20399;-64
2023/08/15 03:27:29;;;;;;;6.53;3.60;;;19.80;99.90;;;;;;5026731;28;20112;-65
2023/08/15 03:29:55;;;;;;;21.85;4.53;;;19.80;99.90;;;;;;5037842;28;20029;-66
2023/08/15 03:32:20;;;;;;;16.00;4.40;;;19.80;99.90;;;;;;5036002;28;20045;-64
2023/08/15 03:34:46;;;;;;;8.30;4.25;;;19.70;99.90;;;;;;5038062;28;20041;-65
2023/08/15 03:37:11;;;;;;;7.20;4.45;;;19.70;99.90;;;;;;5037027;28;20033;-65
2023/08/15 03:39:37;;;;;;;9.85;4.80;;;19.70;99.90;;;;;;5042539;28;20064;-64
2023/08/15 03:42:03;;;;;;;10.05;4.90;;;19.70;99.90;;;;;;5039290;28;20514;-66
2023/08/15 03:44:28;;;;;;;10.30;5.72;;;19.70;99.90;;;;;;5045843;28;20453;-66
2023/08/15 03:46:54;;;;;;;7.93;4.72;;;19.70;99.90;;;;;;5043504;28;20028;-66
2023/08/15 03:49:19;;;;;;;14.98;4.68;;;19.70;99.90;;;;;;5040389;28;20486;-65
2023/08/15 03:51:45;;;;;;;7.78;5.32;;;19.70;99.90;;;;;;5037637;28;20691;-65
2023/08/15 03:54:10;;;;;;;6.40;4.97;;;19.70;99.90;;;;;;5042015;28;20064;-64
2023/08/15 03:56:36;;;;;;;13.38;5.97;;;19.60;99.90;;;;;;5038910;28;20024;-64
2023/08/15 03:59:02;;;;;;;8.32;5.35;;;19.60;99.90;;;;;;5040016;28;20020;-65
2023/08/15 04:01:28;;;;;;;8.65;4.85;;;19.60;99.90;;;;;;5047915;28;20021;-65
2023/08/15 04:03:55;;;;;;;9.95;4.93;;;19.60;99.90;;;;;;5043501;28;20037;-66
2023/08/15 04:06:21;;;;;;;9.18;5.40;;;19.50;99.90;;;;;;5044929;28;20096;-66
2023/08/15 04:08:47;;;;;;;10.95;5.07;;;19.50;99.90;;;;;;5040546;28;20131;-66
2023/08/15 04:11:12;;;;;;;10.68;5.18;;;19.50;99.90;;;;;;5047039;28;20545;-65
2023/08/15 04:13:38;;;;;;;11.02;5.18;;;19.50;99.90;;;;;;5046056;28;20059;-65
2023/08/15 04:16:04;;;;;;;10.80;4.90;;;19.50;99.90;;;;;;5043726;28;20065;-66
2023/08/15 04:18:29;;;;;;;5.90;4.38;;;19.50;99.90;;;;;;5020073;28;20032;-65
2023/08/15 04:20:55;;;;;;;6.18;3.70;;;19.50;99.90;;;;;;5050956;28;20057;-65
2023/08/15 04:23:21;;;;;;;9.32;4.22;;;19.50;99.90;;;;;;5047821;28;20458;-66
2023/08/15 04:25:47;;;;;;;4.45;2.90;;;19.50;99.90;;;;;;5045516;28;20036;-64
2023/08/15 04:28:13;;;;;;;4.22;2.95;;;19.50;99.90;;;;;;5042829;28;20430;-65
2023/08/15 04:30:38;;;;;;;4.22;2.85;;;19.50;99.90;;;;;;5044383;28;20111;-64
2023/08/15 04:33:04;;;;;;;5.50;3.13;;;19.40;99.90;;;;;;5040852;28;20029;-65
2023/08/15 04:35:30;;;;;;;3.10;2.50;;;19.40;99.90;;;;;;5047770;28;20025;-63
2023/08/15 04:37:55;;;;;;;3.80;2.78;;;19.30;99.90;;;;;;5043903;28;20036;-64
2023/08/15 04:40:34;;;;;;;10.90;3.15;;;19.30;99.90;;;;;;5044992;28;20548;-65
2023/08/15 04:43:00;;;;;;;4.68;2.72;;;19.20;99.90;;;;;;5042078;28;20101;-65
2023/08/15 04:45:26;;;;;;;5.30;2.47;;;19.10;99.90;;;;;;5039039;28;20079;-65
2023/08/15 04:47:52;;;;;;;4.18;2.67;;;19.10;99.90;;;;;;5043393;28;20025;-64
2023/08/15 04:50:17;;;;;;;3.92;2.70;;;19.00;99.90;;;;;;5043543;28;20453;-65
2023/08/15 04:52:43;;;;;;;3.65;1.90;;;19.00;99.90;;;;;;5045580;28;20437;-65
2023/08/15 04:55:13;;;;;;;2.85;2.47;;;19.00;99.90;;;;;;5043055;28;20490;-65
2023/08/15 04:57:39;;;;;;;3.25;2.42;;;18.90;99.90;;;;;;5040625;28;20021;-65
2023/08/15 05:00:08;;;;;;;5.07;2.47;;;19.00;99.90;;;;;;5042299;28;20618;-64
2023/08/15 05:02:35;;;;;;;6.63;2.55;;;19.00;99.90;;;;;;5042081;28;20021;-65
2023/08/15 05:05:11;;;;;;;4.85;2.08;;;19.00;99.90;;;;;;5047461;28;20074;-65
2023/08/15 05:07:37;;;;;;;6.00;2.30;;;19.00;99.90;;;;;;5047883;28;20112;-63
2023/08/15 05:10:03;;;;;;;4.38;1.60;;;19.00;99.90;;;;;;5047149;28;20079;-66
2023/08/15 05:12:29;;;;;;;7.18;1.95;;;19.00;99.90;;;;;;5041452;28;20042;-65
2023/08/15 05:14:55;;;;;;;3.95;2.00;;;19.00;99.90;;;;;;5035801;28;20411;-65
2023/08/15 05:17:20;;;;;;;5.75;2.88;;;19.00;99.90;;;;;;5042037;28;20052;-66
2023/08/15 05:19:46;;;;;;;5.50;1.92;;;19.10;99.90;;;;;;5019379;28;20067;-65
2023/08/15 05:22:11;;;;;;;5.63;1.80;;;19.10;99.90;;;;;;5040340;28;20032;-64
2023/08/15 05:24:37;;;;;;;3.72;2.55;;;19.10;99.90;;;;;;5041312;28;20024;-65
2023/08/15 05:27:02;;;;;;;2.67;1.83;;;19.20;99.90;;;;;;5039038;28;20401;-65
2023/08/15 05:29:28;;;;;;;2.33;2.05;;;19.20;99.90;;;;;;5038271;28;20048;-66
2023/08/15 05:31:54;;;;;;;2.65;1.70;;;19.20;99.90;;;;;;5043152;28;20038;-66
2023/08/15 05:34:20;;;;;;;2.78;1.58;;;19.30;99.90;;;;;;5048142;28;20025;-66
2023/08/15 05:36:45;;;;;;;3.65;1.50;;;19.40;99.90;;;;;;5038747;28;20032;-64
2023/08/15 05:39:11;;;;;;;2.40;1.50;;;19.40;99.90;;;;;;5043984;28;20032;-65
2023/08/15 05:41:37;;;;;;;3.47;1.88;;;19.50;99.90;;;;;;5044584;28;20383;-65
2023/08/15 05:44:02;;;;;;;6.55;1.48;;;19.50;99.90;;;;;;5043335;28;20116;-65
2023/08/15 05:46:28;;;;;;;2.90;1.58;;;19.60;99.90;;;;;;5043406;28;20021;-65
2023/08/15 05:48:53;;;;;;;3.22;1.55;;;19.80;99.90;;;;;;5037393;28;20025;-65
2023/08/15 05:51:19;;;;;;;3.33;1.48;;;20.30;99.90;;;;;;5036059;28;20031;-66
2023/08/15 05:53:45;;;;;;;1.65;1.27;;;20.80;99.90;;;;;;5040804;28;20453;-65
2023/08/15 05:56:10;;;;;;;3.75;1.15;;;21.00;99.90;;;;;;5041781;28;21604;-65
2023/08/15 05:58:36;;;;;;;3.00;1.27;;;21.20;99.90;;;;;;5039966;28;20108;-65
2023/08/15 06:01:01;;;;;;;1.83;1.17;;;21.20;99.90;;;;;;5042975;28;20037;-65
2023/08/15 06:03:27;;;;;;;1.83;0.95;;;21.00;99.90;;;;;;5040414;28;20025;-64
2023/08/15 06:05:58;;;;;;;3.05;1.10;;;21.10;99.90;;;;;;5041104;28;20083;-65
2023/08/15 06:08:23;;;;;;;1.65;1.10;;;21.30;99.90;;;;;;5043510;28;20025;-64
2023/08/15 06:10:49;;;;;;;2.15;1.08;;;21.70;99.90;;;;;;5044400;28;20027;-66
2023/08/15 06:13:15;;;;;;;1.20;0.93;;;21.90;99.90;;;;;;5038908;28;20119;-64
2023/08/15 06:15:40;;;;;;;1.02;0.80;;;22.30;99.90;;;;;;5041541;28;20063;-65
2023/08/15 06:18:06;;;;;;;2.05;0.95;;;22.70;99.90;;;;;;5036375;28;20029;-66
2023/08/15 06:20:31;;;;;;;1.48;0.95;;;23.20;99.90;;;;;;5021148;28;20060;-65
2023/08/15 06:22:57;;;;;;;2.80;0.82;;;23.70;99.90;;;;;;5045366;28;20032;-66
2023/08/15 06:25:23;;;;;;;2.10;0.93;;;24.40;99.90;;;;;;5041317;28;20043;-65
2023/08/15 06:27:48;;;;;;;1.63;1.10;;;25.40;99.90;;;;;;5039935;28;20052;-66
2023/08/15 06:30:14;;;;;;;2.65;1.42;;;26.30;99.90;;;;;;5042282;28;20540;-67
2023/08/15 06:32:39;;;;;;;1.20;0.73;;;27.10;99.90;;;;;;5041151;28;20029;-65
2023/08/15 06:35:06;;;;;;;1.00;0.90;;;27.80;99.90;;;;;;5041486;28;20402;-67
2023/08/15 06:37:32;;;;;;;5.40;0.90;;;27.90;99.90;;;;;;5041051;28;20033;-64
2023/08/15 06:39:57;;;;;;;3.55;0.98;;;28.20;99.90;;;;;;5035397;28;20047;-66
2023/08/15 06:42:23;;;;;;;1.58;0.77;;;28.20;99.90;;;;;;5038971;28;20402;-65
2023/08/15 06:44:49;;;;;;;5.15;0.85;;;28.40;99.90;;;;;;5043890;28;20029;-65
2023/08/15 06:47:14;;;;;;;1.85;0.80;;;28.50;99.90;;;;;;5039402;28;20127;-64
2023/08/15 06:49:40;;;;;;;1.80;0.90;;;28.90;99.90;;;;;;5046543;28;20033;-65
2023/08/15 06:52:07;;;;;;;2.88;1.00;;;29.80;99.90;;;;;;5041007;28;20568;-65
2023/08/15 06:54:33;;;;;;;1.55;0.85;;;31.00;99.40;;;;;;5037822;28;20024;-65
2023/08/15 06:56:58;;;;;;;2.17;0.82;;;31.50;97.60;;;;;;5040998;28;20043;-65
2023/08/15 06:59:24;;;;;;;3.60;0.80;;;31.50;95.60;;;;;;5045487;28;20074;-65
2023/08/15 07:01:52;;;;;;;1.77;0.80;;;31.40;97.30;;;;;;5042523;28;20033;-65
2023/08/15 07:04:19;;;;;;;0.68;0.68;;;31.30;96.70;;;;;;5038218;28;20060;-65
2023/08/15 07:06:45;;;;;;;1.50;0.82;;;31.30;97.20;;;;;;5042839;28;20417;-66
2023/08/15 07:09:11;;;;;;;1.88;0.90;;;31.00;97.20;;;;;;5047739;28;20023;-66
2023/08/15 07:11:36;;;;;;;1.40;0.80;;;31.20;96.70;;;;;;5047126;28;20025;-64
2023/08/15 07:14:02;;;;;;;1.70;1.08;;;29.80;96.00;;;;;;5035236;28;20434;-65
2023/08/15 07:16:27;;;;;;;2.47;1.40;;;28.70;99.90;;;;;;5043561;28;20051;-66
2023/08/15 07:18:53;;;;;;;3.67;0.80;;;27.50;99.90;;;;;;5042369;28;20090;-66
2023/08/15 07:21:18;;;;;;;1.75;0.98;;;26.50;99.90;;;;;;5026092;28;20068;-66
2023/08/15 07:23:44;;;;;;;1.75;1.00;;;25.50;99.90;;;;;;5048847;28;20462;-66
2023/08/15 07:26:10;;;;;;;1.48;1.08;;;24.80;99.90;;;;;;5044423;28;20400;-66
2023/08/15 07:28:35;;;;;;;1.13;0.73;;;24.60;99.90;;;;;;5032054;28;20390;-65
2023/08/15 07:31:01;;;;;;;2.85;0.90;;;24.60;99.90;;;;;;5043748;28;20049;-65
2023/08/15 07:33:27;;;;;;;1.35;0.90;;;25.00;99.90;;;;;;5039916;28;20160;-66
2023/08/15 07:35:52;;;;;;;2.22;1.20;;;25.90;99.90;;;;;;5042043;28;20025;-66
2023/08/15 07:38:18;;;;;;;4.43;1.15;;;26.10;99.90;;;;;;5039355;28;20052;-64
2023/08/15 07:40:44;;;;;;;1.52;0.98;;;26.10;99.90;;;;;;5043531;28;20036;-67
2023/08/15 07:43:09;;;;;;;2.78;0.80;;;26.20;99.90;;;;;;5037181;28;20110;-65
2023/08/15 07:45:35;;;;;;;4.22;0.95;;;25.80;99.90;;;;;;5044700;28;20021;-64
2023/08/15 07:48:00;;;;;;;3.83;0.98;;;26.20;99.90;;;;;;5039517;28;20506;-66
2023/08/15 07:50:28;;;;;;;3.80;1.10;;;26.00;99.90;;;;;;5039477;28;20026;-66
2023/08/15 07:52:54;;;;;;;5.93;1.63;;;25.20;99.90;;;;;;5035763;28;20135;-66
2023/08/15 07:55:20;;;;;;;1.88;1.10;;;24.50;99.90;;;;;;5042188;28;20029;-67
2023/08/15 07:57:46;;;;;;;3.17;1.23;;;23.90;99.90;;;;;;5040583;28;20828;-66
2023/08/15 08:00:13;;;;;;;2.13;1.35;;;23.90;99.90;;;;;;5042327;28;20056;-65
2023/08/15 08:02:39;;;;;;;2.30;1.20;;;24.00;99.90;;;;;;5038310;28;20762;-65
2023/08/15 08:05:07;;;;;;;2.78;1.23;;;24.00;99.90;;;;;;5041864;28;20424;-66
2023/08/15 08:07:40;;;;;;;5.50;1.20;;;24.10;99.90;;;;;;5038062;28;20027;-65
2023/08/15 08:10:07;;;;;;;1.90;1.23;;;24.10;99.90;;;;;;5041095;28;20065;-66
2023/08/15 08:12:33;;;;;;;3.10;0.93;;;24.20;99.90;;;;;;5037783;28;20099;-65
2023/08/15 08:14:59;;;;;;;1.88;1.17;;;24.50;99.90;;;;;;5044642;28;20102;-65
2023/08/15 08:17:24;;;;;;;5.47;1.20;;;24.80;99.90;;;;;;5041563;28;20490;-64
2023/08/15 08:19:50;;;;;;;1.80;1.10;;;24.60;99.90;;;;;;5040360;28;20443;-65
2023/08/15 08:22:16;;;;;;;2.05;1.08;;;24.50;99.90;;;;;;5040642;28;20116;-64
2023/08/15 08:24:41;;;;;;;4.18;1.15;;;24.50;99.90;;;;;;5032939;28;20053;-67
2023/08/15 08:27:07;;;;;;;3.33;1.55;;;24.20;99.90;;;;;;5039194;28;20108;-65
2023/08/15 08:29:32;;;;;;;2.22;1.77;;;24.00;99.90;;;;;;5047192;28;20449;-63
2023/08/15 08:31:58;;;;;;;3.97;1.48;;;23.80;99.90;;;;;;5042131;28;20021;-65
2023/08/15 08:34:24;;;;;;;6.68;1.42;;;23.80;99.90;;;;;;5037646;28;20112;-66
2023/08/15 08:36:50;;;;;;;9.80;1.40;;;23.80;99.90;;;;;;5040892;28;20040;-66
2023/08/15 08:39:15;;;;;;;2.28;1.17;;;23.90;99.90;;;;;;5039939;28;20021;-65
2023/08/15 08:41:41;;;;;;;2.95;1.17;;;24.50;99.90;;;;;;5042486;28;20052;-66
2023/08/15 08:44:09;;;;;;;1.42;1.10;;;25.60;99.90;;;;;;5037704;28;20032;-66
2023/08/15 08:46:36;;;;;;;3.13;1.48;;;26.60;99.90;;;;;;5046774;28;20018;-65
2023/08/15 08:49:03;;;;;;;2.58;1.35;;;27.40;99.90;;;;;;5045481;28;20116;-66
2023/08/15 08:51:32;;;;;;;4.03;1.85;;;27.60;99.90;;;;;;5043915;28;20028;-65
2023/08/15 08:53:58;;;;;;;8.75;1.50;;;27.20;99.90;;;;;;5044737;28;20482;-64
2023/08/15 08:56:29;;;;;;;3.15;1.65;;;26.60;99.90;;;;;;5043284;28;20030;-66
2023/08/15 08:59:11;;;;;;;2.72;1.85;;;26.80;99.90;;;;;;5045200;28;20040;-64
2023/08/15 09:01:37;;;;;;;3.42;1.70;;;27.00;99.90;;;;;;5045986;28;20090;-64
2023/08/15 09:04:03;;;;;;;5.65;1.65;;;27.20;99.90;;;;;;5049211;28;20125;-65
2023/08/15 09:06:29;;;;;;;2.75;1.60;;;27.60;99.90;;;;;;5045851;28;20132;-66
2023/08/15 09:08:57;;;;;;;4.15;1.52;;;27.80;99.90;;;;;;5046584;28;20033;-67
2023/08/15 09:11:23;;;;;;;4.28;1.45;;;28.00;99.90;;;;;;5044575;28;20025;-64
2023/08/15 09:13:49;;;;;;;5.45;1.77;;;27.70;99.90;;;;;;5047225;28;20040;-65
2023/08/15 09:16:16;;;;;;;2.45;1.40;;;27.30;99.90;;;;;;5046653;28;20029;-65
2023/08/15 09:18:42;;;;;;;4.53;1.75;;;27.20;99.90;;;;;;5046689;28;20048;-65
2023/08/15 09:21:07;;;;;;;5.63;1.70;;;27.60;99.90;;;;;;5021310;28;20075;-63
2023/08/15 09:23:33;;;;;;;2.60;1.45;;;27.70;99.90;;;;;;5048977;28;20479;-64
2023/08/15 09:26:11;;;;;;;2.45;1.67;;;27.50;99.90;;;;;;5028058;28;20437;-64
2023/08/15 09:28:41;;;;;;;4.00;1.60;;;27.10;99.90;;;;;;5039887;28;20116;-65
2023/08/15 09:31:09;;;;;;;2.83;1.83;;;27.00;99.90;;;;;;5045708;28;20074;-65
2023/08/15 09:33:38;;;;;;;2.60;1.75;;;26.70;99.90;;;;;;5037430;28;20021;-64
2023/08/15 09:36:06;;;;;;;5.28;2.15;;;26.60;99.90;;;;;;5045438;28;20043;-65
2023/08/15 09:38:32;;;;;;;3.88;2.15;;;26.50;99.90;;;;;;5039425;28;20528;-65
2023/08/15 09:40:59;;;;;;;2.85;2.05;;;26.50;99.90;;;;;;5048312;28;20398;-66
2023/08/15 09:43:25;;;;;;;7.90;2.33;;;26.20;99.90;;;;;;5045026;28;20025;-66
2023/08/15 09:45:51;;;;;;;5.90;2.38;;;26.20;99.90;;;;;;5044297;28;21893;-67
2023/08/15 09:48:17;;;;;;;4.18;2.65;;;26.50;99.90;;;;;;5042206;28;20051;-65
2023/08/15 09:50:45;;;;;;;5.18;2.50;;;26.70;99.90;;;;;;5035276;28;20032;-64
2023/08/15 09:53:11;;;;;;;4.72;2.85;;;27.00;99.90;;;;;;5044801;28;20025;-65
2023/08/15 09:55:38;;;;;;;4.47;2.70;;;27.30;99.90;;;;;;5044769;28;20120;-64
2023/08/15 09:58:04;;;;;;;3.30;2.13;;;27.70;99.90;;;;;;5043247;28;20127;-65
2023/08/15 10:00:30;;;;;;;4.38;2.58;;;28.00;99.90;;;;;;5046827;28;20108;-65
2023/08/15 10:03:01;;;;;;;5.47;2.95;;;27.80;99.90;;;;;;5044124;28;20021;-66
2023/08/15 10:05:31;;;;;;;5.05;2.70;;;27.80;99.90;;;;;;5044704;28;20029;-65
2023/08/15 10:07:58;;;;;;;6.22;2.63;;;27.70;99.90;;;;;;5054807;28;20056;-65
2023/08/15 10:10:24;;;;;;;8.38;3.17;;;27.70;99.90;;;;;;5044211;28;20017;-64
2023/08/15 10:12:51;;;;;;;6.35;3.08;;;27.40;99.90;;;;;;5044242;28;20040;-65
2023/08/15 10:15:17;;;;;;;4.68;2.70;;;27.50;99.90;;;;;;5042573;28;20035;-64
2023/08/15 10:17:43;;;;;;;6.28;2.97;;;27.30;99.90;;;;;;5040322;28;20029;-66
2023/08/15 10:20:10;;;;;;;4.20;2.58;;;27.70;99.90;;;;;;5037768;28;20032;-66
2023/08/15 10:22:38;;;;;;;4.30;2.40;;;27.40;99.90;;;;;;5017405;28;20072;-65
2023/08/15 10:25:23;;;;;;;3.90;2.40;;;27.20;99.90;;;;;;5049644;28;20021;-64
2023/08/15 10:27:51;;;;;;;7.72;2.80;;;26.80;99.90;;;;;;5044867;28;20103;-64
2023/08/15 10:30:40;;;;;;;4.65;2.60;;;26.70;99.90;;;;;;5044216;28;20036;-65
2023/08/15 10:33:14;;;;;;;6.60;2.90;;;26.60;99.90;;;;;;5041944;28;20052;-64
2023/08/15 10:35:50;;;;;;;5.40;3.20;;;26.40;99.90;;;;;;5043261;28;20040;-64
2023/08/15 10:38:19;;;;;;;5.95;3.50;;;26.20;99.90;;;;;;5043389;28;20137;-65
2023/08/15 10:40:45;;;;;;;7.82;3.17;;;26.00;99.90;;;;;;5045239;28;20585;-64
2023/08/15 10:43:15;;;;;;;4.72;2.95;;;25.90;99.90;;;;;;5038339;28;20032;-65
2023/08/15 10:45:43;;;;;;;5.25;3.47;;;25.90;99.90;;;;;;5036067;28;20506;-65
2023/08/15 10:48:09;;;;;;;8.38;2.67;;;26.00;99.90;;;;;;5040361;28;20040;-65
2023/08/15 10:50:40;;;;;;;6.40;3.13;;;26.30;99.90;;;;;;5044539;28;20024;-65
2023/08/15 10:53:06;;;;;;;6.45;2.90;;;26.50;99.90;;;;;;5043567;28;20035;-65
2023/08/15 10:55:37;;;;;;;4.90;2.67;;;26.30;99.90;;;;;;5040672;28;20033;-65
2023/08/15 10:58:05;;;;;;;7.40;2.78;;;26.20;99.90;;;;;;5050049;28;20024;-65
2023/08/15 11:00:32;;;;;;;3.97;2.90;;;26.10;99.90;;;;;;5047834;28;20021;-65
2023/08/15 11:02:57;;;;;;;5.15;2.97;;;26.10;99.90;;;;;;5033809;28;20624;-64
2023/08/15 11:05:23;;;;;;;6.28;3.05;;;26.10;99.90;;;;;;5044765;28;20040;-65
2023/08/15 11:07:49;;;;;;;4.93;3.13;;;26.00;99.90;;;;;;5046819;28;20021;-65
2023/08/15 11:10:15;;;;;;;12.35;3.63;;;25.80;99.90;;;;;;5034044;28;20040;-64
2023/08/15 11:12:48;;;;;;;4.93;2.92;;;25.80;99.90;;;;;;5047764;28;20545;-66
2023/08/15 11:15:14;;;;;;;;;;;25.90;99.90;;;;;;5048479;28;20024;-65
2023/08/15 11:17:44;;;;;;;6.13;3.33;;;26.00;99.90;;;;;;5049052;28;19908;-65
2023/08/15 11:20:10;;;;;;;7.18;2.97;;;26.10;99.90;;;;;;5038989;28;20056;-65
2023/08/15 11:22:36;;;;;;;7.10;3.35;;;26.40;99.90;;;;;;5017603;28;20049;-65
2023/08/15 11:25:01;;;;;;;6.22;3.08;;;26.40;99.90;;;;;;5034047;28;20375;-65
2023/08/15 11:27:27;;;;;;;5.55;2.70;;;26.40;99.90;;;;;;5046909;28;20025;-65
2023/08/15 11:29:59;;;;;;;7.13;3.65;;;26.50;99.90;;;;;;5043384;28;20107;-65
2023/08/15 11:32:25;;;;;;;8.63;3.78;;;26.40;99.90;;;;;;5042096;28;20026;-66
2023/08/15 11:34:51;;;;;;;6.15;3.08;;;26.50;99.90;;;;;;5043047;28;20040;-66
2023/08/15 11:37:17;;;;;;;8.10;3.35;;;26.40;99.90;;;;;;5036755;28;20490;-65
2023/08/15 11:39:50;;;;;;;8.02;4.00;;;26.70;99.90;;;;;;5040512;28;20037;-65
2023/08/15 11:42:16;;;;;;;6.88;3.08;;;26.90;99.90;;;;;;5043889;28;20437;-66
2023/08/15 11:44:41;;;;;;;5.07;3.10;;;26.90;99.90;;;;;;5043372;28;20083;-65
2023/08/15 11:47:07;;;;;;;6.00;3.45;;;27.10;99.90;;;;;;5044760;28;20025;-65
2023/08/15 11:49:33;;;;;;;7.80;3.83;;;26.70;99.90;;;;;;5040428;28;20076;-67
2023/08/15 11:52:05;;;;;;;7.05;3.03;;;26.90;99.90;;;;;;5037799;28;20025;-65
2023/08/15 11:54:30;;;;;;;5.45;3.38;;;26.60;99.90;;;;;;5037971;28;20414;-65
2023/08/15 11:56:56;;;;;;;7.10;3.20;;;26.60;99.90;;;;;;5033828;28;20048;-65
2023/08/15 11:59:23;;;;;;;4.00;2.97;;;26.80;99.90;;;;;;5036352;28;20072;-65
2023/08/15 12:01:49;;;;;;;5.25;3.28;;;26.70;99.90;;;;;;5038854;28;20040;-65
2023/08/15 12:04:16;;;;;;;9.32;3.22;;;26.80;99.90;;;;;;5037821;28;20024;-66
2023/08/15 12:06:41;;;;;;;6.80;3.38;;;26.70;99.90;;;;;;5036095;28;20060;-66
2023/08/15 12:09:07;;;;;;;8.23;3.80;;;26.80;99.90;;;;;;5037905;28;20060;-65
2023/08/15 12:11:36;;;;;;;5.40;3.00;;;26.80;99.90;;;;;;5037092;28;20044;-65
2023/08/15 12:14:03;;;;;;;8.20;3.38;;;27.10;99.90;;;;;;5035889;28;20036;-66
2023/08/15 12:16:30;;;;;;;5.38;2.90;;;27.20;99.90;;;;;;5030938;28;20578;-66
2023/08/15 12:18:56;;;;;;;4.55;2.88;;;27.40;99.90;;;;;;5036138;28;20851;-65
2023/08/15 12:21:22;;;;;;;6.00;3.08;;;27.80;99.90;;;;;;5044741;28;20028;-64
2023/08/15 12:23:48;;;;;;;8.35;2.92;;;27.90;99.90;;;;;;5018798;28;20044;-66
2023/08/15 12:26:13;;;;;;;4.90;3.00;;;28.00;99.90;;;;;;5048069;28;20032;-64
2023/08/15 12:28:39;;;;;;;9.80;3.20;;;27.60;99.90;;;;;;5047546;28;20083;-65
2023/08/15 12:31:05;;;;;;;4.82;3.15;;;27.70;99.90;;;;;;5039683;28;20032;-66
2023/08/15 12:33:33;;;;;;;10.60;3.25;;;27.60;99.90;;;;;;5038086;28;20021;-64
2023/08/15 12:35:59;;;;;;;5.97;2.85;;;27.50;99.90;;;;;;5038737;28;20159;-66
2023/08/15 12:38:25;;;;;;;5.57;3.03;;;27.60;99.90;;;;;;5038644;28;20505;-64
2023/08/15 12:40:51;;;;;;;3.60;2.78;;;27.80;99.90;;;;;;5043454;28;20033;-65
2023/08/15 12:43:16;;;;;;;5.65;2.85;;;27.50;99.90;;;;;;5048355;28;20051;-64